Terminal Aerodrome Forecast
Issued by NWS Northern Indiana

Home | Current Version | Previous Version | Graphics & Text | Print | Product List | Glossary On
Versions: 1 2 3 4 5 6 7 8 9 10 11 12 13 14 15 16 17
772
FTUS43 KIWX 041520 AAA
TAFFWA
TAF AMD
KFWA 041520Z 0415/0512 26012KT P6SM -SHSN OVC017
     FM041700 27012KT P6SM SCT018 OVC025
     FM041900 27010KT P6SM SCT030
     FM050000 23004KT P6SM BKN050=

USA.gov is the U.S. government's official web portal to all federal, state and local government web resources and services.